sensor_id;sensor_type;location;lat;lon;timestamp;temperature;humidity
14473;DHT22;7322;50.872;4.386;2024-02-26T00:00:25;17.00;99.90
14473;DHT22;7322;50.872;4.386;2024-02-26T00:02:55;17.00;99.90
14473;DHT22;7322;50.872;4.386;2024-02-26T00:05:22;17.00;99.90
14473;DHT22;7322;50.872;4.386;2024-02-26T00:07:52;17.00;99.90
14473;DHT22;7322;50.872;4.386;2024-02-26T00:10:19;17.00;99.90
14473;DHT22;7322;50.872;4.386;2024-02-26T00:12:48;17.00;99.90
14473;DHT22;7322;50.872;4.386;2024-02-26T00:15:16;17.00;99.90
14473;DHT22;7322;50.872;4.386;2024-02-26T00:17:44;17.00;99.90
14473;DHT22;7322;50.872;4.386;2024-02-26T00:20:16;17.00;99.90
14473;DHT22;7322;50.872;4.386;2024-02-26T00:22:45;17.00;99.90
14473;DHT22;7322;50.872;4.386;2024-02-26T00:25:19;17.00;99.90
14473;DHT22;7322;50.872;4.386;2024-02-26T00:27:47;17.00;99.90
14473;DHT22;7322;50.872;4.386;2024-02-26T00:30:15;17.00;99.90
14473;DHT22;7322;50.872;4.386;2024-02-26T00:32:43;17.00;99.90
14473;DHT22;7322;50.872;4.386;2024-02-26T00:35:11;17.00;99.90
14473;DHT22;7322;50.872;4.386;2024-02-26T00:37:40;17.00;99.90
14473;DHT22;7322;50.872;4.386;2024-02-26T00:40:10;17.00;99.90
14473;DHT22;7322;50.872;4.386;2024-02-26T00:42:37;17.00;99.90
14473;DHT22;7322;50.872;4.386;2024-02-26T00:45:11;17.00;99.90
14473;DHT22;7322;50.872;4.386;2024-02-26T00:47:38;17.00;99.90
14473;DHT22;7322;50.872;4.386;2024-02-26T00:50:08;17.00;99.90
14473;DHT22;7322;50.872;4.386;2024-02-26T00:52:40;17.00;99.90
14473;DHT22;7322;50.872;4.386;2024-02-26T00:55:08;17.00;99.90
14473;DHT22;7322;50.872;4.386;2024-02-26T00:57:36;16.90;99.90
14473;DHT22;7322;50.872;4.386;2024-02-26T01:00:05;17.00;99.90
14473;DHT22;7322;50.872;4.386;2024-02-26T01:02:37;17.00;99.90
14473;DHT22;7322;50.872;4.386;2024-02-26T01:05:06;16.90;99.90
14473;DHT22;7322;50.872;4.386;2024-02-26T01:07:36;16.90;99.90
14473;DHT22;7322;50.872;4.386;2024-02-26T01:10:06;16.90;99.90
14473;DHT22;7322;50.872;4.386;2024-02-26T01:12:34;16.90;99.90
14473;DHT22;7322;50.872;4.386;2024-02-26T01:15:05;16.90;99.90
14473;DHT22;7322;50.872;4.386;2024-02-26T01:17:33;17.00;99.90
14473;DHT22;7322;50.872;4.386;2024-02-26T01:20:00;16.90;99.90
14473;DHT22;7322;50.872;4.386;2024-02-26T01:22:27;16.90;99.90
14473;DHT22;7322;50.872;4.386;2024-02-26T01:24:55;16.90;99.90
14473;DHT22;7322;50.872;4.386;2024-02-26T01:27:28;16.80;99.90
14473;DHT22;7322;50.872;4.386;2024-02-26T01:29:56;16.80;99.90
14473;DHT22;7322;50.872;4.386;2024-02-26T01:32:23;16.90;99.90
14473;DHT22;7322;50.872;4.386;2024-02-26T01:34:55;16.90;99.90
14473;DHT22;7322;50.872;4.386;2024-02-26T01:37:23;16.90;99.90
14473;DHT22;7322;50.872;4.386;2024-02-26T01:39:52;16.90;99.90
14473;DHT22;7322;50.872;4.386;2024-02-26T01:42:20;16.90;99.90
14473;DHT22;7322;50.872;4.386;2024-02-26T01:44:48;16.90;99.90
14473;DHT22;7322;50.872;4.386;2024-02-26T01:47:16;16.90;99.90
14473;DHT22;7322;50.872;4.386;2024-02-26T01:49:43;16.90;99.90
14473;DHT22;7322;50.872;4.386;2024-02-26T01:52:11;16.90;99.90
14473;DHT22;7322;50.872;4.386;2024-02-26T01:54:42;16.90;99.90
14473;DHT22;7322;50.872;4.386;2024-02-26T01:57:17;16.90;99.90
14473;DHT22;7322;50.872;4.386;2024-02-26T01:59:51;16.90;99.90
14473;DHT22;7322;50.872;4.386;2024-02-26T02:02:18;16.90;99.90
14473;DHT22;7322;50.872;4.386;2024-02-26T02:04:46;16.90;99.90
14473;DHT22;7322;50.872;4.386;2024-02-26T02:07:15;16.90;99.90
14473;DHT22;7322;50.872;4.386;2024-02-26T02:09:48;16.80;99.90
14473;DHT22;7322;50.872;4.386;2024-02-26T02:12:17;16.90;99.90
14473;DHT22;7322;50.872;4.386;2024-02-26T02:14:44;16.90;99.90
14473;DHT22;7322;50.872;4.386;2024-02-26T02:17:13;16.90;99.90
14473;DHT22;7322;50.872;4.386;2024-02-26T02:19:41;16.90;99.90
14473;DHT22;7322;50.872;4.386;2024-02-26T02:22:12;16.90;99.90
14473;DHT22;7322;50.872;4.386;2024-02-26T02:24:40;16.90;99.90
14473;DHT22;7322;50.872;4.386;2024-02-26T02:27:07;16.90;99.90
14473;DHT22;7322;50.872;4.386;2024-02-26T02:29:34;16.80;99.90
14473;DHT22;7322;50.872;4.386;2024-02-26T02:32:07;16.80;99.90
14473;DHT22;7322;50.872;4.386;2024-02-26T02:34:34;16.90;99.90
14473;DHT22;7322;50.872;4.386;2024-02-26T02:37:02;16.80;99.90
14473;DHT22;7322;50.872;4.386;2024-02-26T02:39:31;16.80;99.90
14473;DHT22;7322;50.872;4.386;2024-02-26T02:41:58;16.80;99.90
14473;DHT22;7322;50.872;4.386;2024-02-26T02:44:25;16.90;99.90
14473;DHT22;7322;50.872;4.386;2024-02-26T02:46:52;16.90;99.90
14473;DHT22;7322;50.872;4.386;2024-02-26T02:49:19;16.80;99.90
14473;DHT22;7322;50.872;4.386;2024-02-26T02:51:52;16.90;99.90
14473;DHT22;7322;50.872;4.386;2024-02-26T02:54:20;16.90;99.90
14473;DHT22;7322;50.872;4.386;2024-02-26T02:56:49;16.80;99.90
14473;DHT22;7322;50.872;4.386;2024-02-26T02:59:16;16.80;99.90
14473;DHT22;7322;50.872;4.386;2024-02-26T03:01:44;16.80;99.90
14473;DHT22;7322;50.872;4.386;2024-02-26T03:04:12;16.80;99.90
14473;DHT22;7322;50.872;4.386;2024-02-26T03:06:39;16.80;99.90
14473;DHT22;7322;50.872;4.386;2024-02-26T03:09:06;16.70;99.90
14473;DHT22;7322;50.872;4.386;2024-02-26T03:11:33;16.80;99.90
14473;DHT22;7322;50.872;4.386;2024-02-26T03:14:02;16.80;99.90
14473;DHT22;7322;50.872;4.386;2024-02-26T03:16:31;16.80;99.90
14473;DHT22;7322;50.872;4.386;2024-02-26T03:18:58;16.90;99.90
14473;DHT22;7322;50.872;4.386;2024-02-26T03:21:25;16.90;99.90
14473;DHT22;7322;50.872;4.386;2024-02-26T03:23:52;16.80;99.90
14473;DHT22;7322;50.872;4.386;2024-02-26T03:26:26;16.80;99.90
14473;DHT22;7322;50.872;4.386;2024-02-26T03:28:54;16.90;99.90
14473;DHT22;7322;50.872;4.386;2024-02-26T03:31:22;16.80;99.90
14473;DHT22;7322;50.872;4.386;2024-02-26T03:33:49;16.80;99.90
14473;DHT22;7322;50.872;4.386;2024-02-26T03:36:18;16.80;99.90
14473;DHT22;7322;50.872;4.386;2024-02-26T03:38:44;16.80;99.90
14473;DHT22;7322;50.872;4.386;2024-02-26T03:41:12;16.80;99.90
14473;DHT22;7322;50.872;4.386;2024-02-26T03:43:40;16.80;99.90
14473;DHT22;7322;50.872;4.386;2024-02-26T03:46:07;16.80;99.90
14473;DHT22;7322;50.872;4.386;2024-02-26T03:48:37;16.80;99.90
14473;DHT22;7322;50.872;4.386;2024-02-26T03:51:04;16.80;99.90
14473;DHT22;7322;50.872;4.386;2024-02-26T03:53:32;16.80;99.90
14473;DHT22;7322;50.872;4.386;2024-02-26T03:56:03;16.80;99.90
14473;DHT22;7322;50.872;4.386;2024-02-26T03:58:31;16.80;99.90
14473;DHT22;7322;50.872;4.386;2024-02-26T04:00:59;16.80;99.90
14473;DHT22;7322;50.872;4.386;2024-02-26T04:03:26;16.80;99.90
14473;DHT22;7322;50.872;4.386;2024-02-26T04:05:54;16.80;99.90
14473;DHT22;7322;50.872;4.386;2024-02-26T04:08:21;16.80;99.90
14473;DHT22;7322;50.872;4.386;2024-02-26T04:10:48;16.80;99.90
14473;DHT22;7322;50.872;4.386;2024-02-26T04:13:16;16.80;99.90
14473;DHT22;7322;50.872;4.386;2024-02-26T04:15:43;16.80;99.90
14473;DHT22;7322;50.872;4.386;2024-02-26T04:18:17;16.80;99.90
14473;DHT22;7322;50.872;4.386;2024-02-26T04:20:44;16.80;99.90
14473;DHT22;7322;50.872;4.386;2024-02-26T04:23:14;16.70;99.90
14473;DHT22;7322;50.872;4.386;2024-02-26T04:25:41;16.70;99.90
14473;DHT22;7322;50.872;4.386;2024-02-26T04:28:08;16.70;99.90
14473;DHT22;7322;50.872;4.386;2024-02-26T04:30:36;16.70;99.90
14473;DHT22;7322;50.872;4.386;2024-02-26T04:33:04;16.70;99.90
14473;DHT22;7322;50.872;4.386;2024-02-26T04:35:35;16.80;99.90
14473;DHT22;7322;50.872;4.386;2024-02-26T04:38:02;16.80;99.90
14473;DHT22;7322;50.872;4.386;2024-02-26T04:40:30;16.70;99.90
14473;DHT22;7322;50.872;4.386;2024-02-26T04:42:58;16.70;99.90
14473;DHT22;7322;50.872;4.386;2024-02-26T04:45:27;16.70;99.90
14473;DHT22;7322;50.872;4.386;2024-02-26T04:47:55;16.70;99.90
14473;DHT22;7322;50.872;4.386;2024-02-26T04:50:28;16.80;99.90
14473;DHT22;7322;50.872;4.386;2024-02-26T04:52:54;16.70;99.90
14473;DHT22;7322;50.872;4.386;2024-02-26T04:55:21;16.80;99.90
14473;DHT22;7322;50.872;4.386;2024-02-26T04:57:50;16.70;99.90
14473;DHT22;7322;50.872;4.386;2024-02-26T05:00:18;16.70;99.90
14473;DHT22;7322;50.872;4.386;2024-02-26T05:02:45;16.70;99.90
14473;DHT22;7322;50.872;4.386;2024-02-26T05:05:13;16.70;99.90
14473;DHT22;7322;50.872;4.386;2024-02-26T05:07:41;16.60;99.90
14473;DHT22;7322;50.872;4.386;2024-02-26T05:10:10;16.70;99.90
14473;DHT22;7322;50.872;4.386;2024-02-26T05:12:38;16.70;99.90
14473;DHT22;7322;50.872;4.386;2024-02-26T05:15:09;16.70;99.90
14473;DHT22;7322;50.872;4.386;2024-02-26T05:17:39;16.70;99.90
14473;DHT22;7322;50.872;4.386;2024-02-26T05:20:06;16.70;99.90
14473;DHT22;7322;50.872;4.386;2024-02-26T05:22:35;16.70;99.90
14473;DHT22;7322;50.872;4.386;2024-02-26T05:25:06;16.70;99.90
14473;DHT22;7322;50.872;4.386;2024-02-26T05:27:33;16.70;99.90
14473;DHT22;7322;50.872;4.386;2024-02-26T05:30:03;16.70;99.90
14473;DHT22;7322;50.872;4.386;2024-02-26T05:32:31;16.70;99.90
14473;DHT22;7322;50.872;4.386;2024-02-26T05:35:01;16.70;99.90
14473;DHT22;7322;50.872;4.386;2024-02-26T05:37:30;16.70;99.90
14473;DHT22;7322;50.872;4.386;2024-02-26T05:39:59;16.70;99.90
14473;DHT22;7322;50.872;4.386;2024-02-26T05:42:26;16.70;99.90
14473;DHT22;7322;50.872;4.386;2024-02-26T05:44:54;16.60;99.90
14473;DHT22;7322;50.872;4.386;2024-02-26T05:47:27;16.70;99.90
14473;DHT22;7322;50.872;4.386;2024-02-26T05:49:57;16.70;99.90
14473;DHT22;7322;50.872;4.386;2024-02-26T05:52:27;16.70;99.90
14473;DHT22;7322;50.872;4.386;2024-02-26T05:54:55;16.70;99.90
14473;DHT22;7322;50.872;4.386;2024-02-26T05:57:22;16.70;99.90
14473;DHT22;7322;50.872;4.386;2024-02-26T05:59:49;16.70;99.90
14473;DHT22;7322;50.872;4.386;2024-02-26T06:02:17;16.70;99.90
14473;DHT22;7322;50.872;4.386;2024-02-26T06:04:44;16.70;99.90
14473;DHT22;7322;50.872;4.386;2024-02-26T06:07:14;16.70;99.90
14473;DHT22;7322;50.872;4.386;2024-02-26T06:09:41;16.70;99.90
14473;DHT22;7322;50.872;4.386;2024-02-26T06:12:12;16.80;99.90
14473;DHT22;7322;50.872;4.386;2024-02-26T06:14:39;16.80;99.90
14473;DHT22;7322;50.872;4.386;2024-02-26T06:17:06;16.80;99.90
14473;DHT22;7322;50.872;4.386;2024-02-26T06:19:40;16.80;99.90
14473;DHT22;7322;50.872;4.386;2024-02-26T06:22:08;16.80;99.90
14473;DHT22;7322;50.872;4.386;2024-02-26T06:24:36;16.90;99.90
14473;DHT22;7322;50.872;4.386;2024-02-26T06:27:04;17.10;99.90
14473;DHT22;7322;50.872;4.386;2024-02-26T06:29:32;17.20;99.90
14473;DHT22;7322;50.872;4.386;2024-02-26T06:31:59;17.20;99.90
14473;DHT22;7322;50.872;4.386;2024-02-26T06:34:36;17.20;99.90
14473;DHT22;7322;50.872;4.386;2024-02-26T06:37:08;17.20;99.90
14473;DHT22;7322;50.872;4.386;2024-02-26T06:39:36;17.20;99.90
14473;DHT22;7322;50.872;4.386;2024-02-26T06:42:06;17.20;99.90
14473;DHT22;7322;50.872;4.386;2024-02-26T06:44:33;17.20;99.90
14473;DHT22;7322;50.872;4.386;2024-02-26T06:47:00;17.20;99.90
14473;DHT22;7322;50.872;4.386;2024-02-26T06:49:28;17.20;99.90
14473;DHT22;7322;50.872;4.386;2024-02-26T06:51:55;17.20;99.90
14473;DHT22;7322;50.872;4.386;2024-02-26T06:54:22;17.20;99.90
14473;DHT22;7322;50.872;4.386;2024-02-26T06:56:52;17.30;99.90
14473;DHT22;7322;50.872;4.386;2024-02-26T06:59:21;17.30;99.90
14473;DHT22;7322;50.872;4.386;2024-02-26T07:01:49;17.30;99.90
14473;DHT22;7322;50.872;4.386;2024-02-26T07:04:16;17.30;99.90
14473;DHT22;7322;50.872;4.386;2024-02-26T07:06:43;17.30;99.90
14473;DHT22;7322;50.872;4.386;2024-02-26T07:09:15;17.30;99.90
14473;DHT22;7322;50.872;4.386;2024-02-26T07:11:42;17.30;99.90
14473;DHT22;7322;50.872;4.386;2024-02-26T07:14:11;17.30;99.90
14473;DHT22;7322;50.872;4.386;2024-02-26T07:16:39;17.30;99.90
14473;DHT22;7322;50.872;4.386;2024-02-26T07:19:06;17.30;99.90
14473;DHT22;7322;50.872;4.386;2024-02-26T07:21:34;17.30;99.90
14473;DHT22;7322;50.872;4.386;2024-02-26T07:24:01;17.30;99.90
14473;DHT22;7322;50.872;4.386;2024-02-26T07:26:28;17.30;99.90
14473;DHT22;7322;50.872;4.386;2024-02-26T07:28:56;17.30;99.90
14473;DHT22;7322;50.872;4.386;2024-02-26T07:31:25;17.30;99.90
14473;DHT22;7322;50.872;4.386;2024-02-26T07:33:53;17.30;99.90
14473;DHT22;7322;50.872;4.386;2024-02-26T07:36:27;17.40;99.90
14473;DHT22;7322;50.872;4.386;2024-02-26T07:38:54;17.40;99.90
14473;DHT22;7322;50.872;4.386;2024-02-26T07:41:21;17.40;99.90
14473;DHT22;7322;50.872;4.386;2024-02-26T07:43:48;17.40;99.90
14473;DHT22;7322;50.872;4.386;2024-02-26T07:46:17;17.40;99.90
14473;DHT22;7322;50.872;4.386;2024-02-26T07:48:59;17.40;99.90
14473;DHT22;7322;50.872;4.386;2024-02-26T07:51:32;17.30;99.90
14473;DHT22;7322;50.872;4.386;2024-02-26T07:53:59;17.20;99.90
14473;DHT22;7322;50.872;4.386;2024-02-26T07:56:27;17.20;99.90
14473;DHT22;7322;50.872;4.386;2024-02-26T07:58:54;17.20;99.90
14473;DHT22;7322;50.872;4.386;2024-02-26T08:01:21;17.20;99.90
14473;DHT22;7322;50.872;4.386;2024-02-26T08:03:48;17.20;99.90
14473;DHT22;7322;50.872;4.386;2024-02-26T08:06:19;17.20;99.90
14473;DHT22;7322;50.872;4.386;2024-02-26T08:08:46;17.20;99.90
14473;DHT22;7322;50.872;4.386;2024-02-26T08:11:15;17.20;99.90
14473;DHT22;7322;50.872;4.386;2024-02-26T08:13:42;17.10;99.90
14473;DHT22;7322;50.872;4.386;2024-02-26T08:16:09;17.10;99.90
14473;DHT22;7322;50.872;4.386;2024-02-26T08:18:39;17.10;99.90
14473;DHT22;7322;50.872;4.386;2024-02-26T08:21:08;17.20;99.90
14473;DHT22;7322;50.872;4.386;2024-02-26T08:23:38;17.10;99.90
14473;DHT22;7322;50.872;4.386;2024-02-26T08:26:06;17.10;99.90
14473;DHT22;7322;50.872;4.386;2024-02-26T08:28:37;17.00;99.90
14473;DHT22;7322;50.872;4.386;2024-02-26T08:31:10;17.00;99.90
14473;DHT22;7322;50.872;4.386;2024-02-26T08:33:38;17.00;99.90
14473;DHT22;7322;50.872;4.386;2024-02-26T08:36:06;17.00;99.90
14473;DHT22;7322;50.872;4.386;2024-02-26T08:38:35;17.00;99.90
14473;DHT22;7322;50.872;4.386;2024-02-26T08:41:04;16.90;99.90
14473;DHT22;7322;50.872;4.386;2024-02-26T08:43:31;16.90;99.90
14473;DHT22;7322;50.872;4.386;2024-02-26T08:45:58;17.00;99.90
14473;DHT22;7322;50.872;4.386;2024-02-26T08:48:25;16.90;99.90
14473;DHT22;7322;50.872;4.386;2024-02-26T08:50:52;16.80;99.90
14473;DHT22;7322;50.872;4.386;2024-02-26T08:53:19;16.90;99.90
14473;DHT22;7322;50.872;4.386;2024-02-26T08:55:47;16.90;99.90
14473;DHT22;7322;50.872;4.386;2024-02-26T08:58:15;16.80;99.90
14473;DHT22;7322;50.872;4.386;2024-02-26T09:00:42;16.80;99.90
14473;DHT22;7322;50.872;4.386;2024-02-26T09:03:09;16.80;99.90
14473;DHT22;7322;50.872;4.386;2024-02-26T09:05:36;16.70;99.90
14473;DHT22;7322;50.872;4.386;2024-02-26T09:08:05;16.70;99.90
14473;DHT22;7322;50.872;4.386;2024-02-26T09:10:38;16.70;99.90
14473;DHT22;7322;50.872;4.386;2024-02-26T09:13:05;16.70;99.90
14473;DHT22;7322;50.872;4.386;2024-02-26T09:15:34;16.70;99.90
14473;DHT22;7322;50.872;4.386;2024-02-26T09:18:01;16.70;99.90
14473;DHT22;7322;50.872;4.386;2024-02-26T09:20:28;16.70;99.90
14473;DHT22;7322;50.872;4.386;2024-02-26T09:22:55;16.70;99.90
14473;DHT22;7322;50.872;4.386;2024-02-26T09:25:23;16.70;99.90
14473;DHT22;7322;50.872;4.386;2024-02-26T09:27:54;16.60;99.90
14473;DHT22;7322;50.872;4.386;2024-02-26T09:30:21;16.60;99.90
14473;DHT22;7322;50.872;4.386;2024-02-26T09:32:50;16.60;99.90
14473;DHT22;7322;50.872;4.386;2024-02-26T09:35:17;16.60;99.90
14473;DHT22;7322;50.872;4.386;2024-02-26T09:37:47;16.70;99.90
14473;DHT22;7322;50.872;4.386;2024-02-26T09:40:14;16.70;99.90
14473;DHT22;7322;50.872;4.386;2024-02-26T09:42:45;16.60;99.90
14473;DHT22;7322;50.872;4.386;2024-02-26T09:45:17;16.60;99.90
14473;DHT22;7322;50.872;4.386;2024-02-26T09:47:52;16.70;99.90
14473;DHT22;7322;50.872;4.386;2024-02-26T09:50:22;16.70;99.90
14473;DHT22;7322;50.872;4.386;2024-02-26T09:52:52;16.70;99.90
14473;DHT22;7322;50.872;4.386;2024-02-26T09:55:20;16.70;99.90
14473;DHT22;7322;50.872;4.386;2024-02-26T09:57:51;16.70;99.90
14473;DHT22;7322;50.872;4.386;2024-02-26T10:00:21;16.70;99.90
14473;DHT22;7322;50.872;4.386;2024-02-26T10:02:48;16.70;99.90
14473;DHT22;7322;50.872;4.386;2024-02-26T10:05:19;16.70;99.90
14473;DHT22;7322;50.872;4.386;2024-02-26T10:07:46;16.70;99.90
14473;DHT22;7322;50.872;4.386;2024-02-26T10:10:20;16.70;99.90
14473;DHT22;7322;50.872;4.386;2024-02-26T10:12:47;16.70;99.90
14473;DHT22;7322;50.872;4.386;2024-02-26T10:15:16;16.60;99.90
14473;DHT22;7322;50.872;4.386;2024-02-26T10:17:43;16.60;99.90
14473;DHT22;7322;50.872;4.386;2024-02-26T10:20:12;16.60;99.90
14473;DHT22;7322;50.872;4.386;2024-02-26T10:22:43;16.60;99.90
14473;DHT22;7322;50.872;4.386;2024-02-26T10:25:11;16.60;99.90
14473;DHT22;7322;50.872;4.386;2024-02-26T10:27:38;16.60;99.90
14473;DHT22;7322;50.872;4.386;2024-02-26T10:30:16;16.70;99.90
14473;DHT22;7322;50.872;4.386;2024-02-26T10:32:44;16.60;99.90
14473;DHT22;7322;50.872;4.386;2024-02-26T10:35:19;16.60;99.90
14473;DHT22;7322;50.872;4.386;2024-02-26T10:37:51;16.60;99.90
14473;DHT22;7322;50.872;4.386;2024-02-26T10:40:21;16.60;99.90
14473;DHT22;7322;50.872;4.386;2024-02-26T10:42:49;16.60;99.90
14473;DHT22;7322;50.872;4.386;2024-02-26T10:45:19;16.60;99.90
14473;DHT22;7322;50.872;4.386;2024-02-26T10:47:46;16.60;99.90
14473;DHT22;7322;50.872;4.386;2024-02-26T10:50:19;16.60;99.90
14473;DHT22;7322;50.872;4.386;2024-02-26T10:52:47;16.60;99.90
14473;DHT22;7322;50.872;4.386;2024-02-26T10:55:17;16.60;99.90
14473;DHT22;7322;50.872;4.386;2024-02-26T10:57:45;16.60;99.90
14473;DHT22;7322;50.872;4.386;2024-02-26T11:00:16;16.60;99.90
14473;DHT22;7322;50.872;4.386;2024-02-26T11:02:44;16.70;99.90
14473;DHT22;7322;50.872;4.386;2024-02-26T11:05:12;16.60;99.90
14473;DHT22;7322;50.872;4.386;2024-02-26T11:07:41;16.60;99.90
14473;DHT22;7322;50.872;4.386;2024-02-26T11:10:09;16.60;99.90
14473;DHT22;7322;50.872;4.386;2024-02-26T11:12:39;16.60;99.90
14473;DHT22;7322;50.872;4.386;2024-02-26T11:15:09;16.60;99.90
14473;DHT22;7322;50.872;4.386;2024-02-26T11:17:38;16.60;99.90
14473;DHT22;7322;50.872;4.386;2024-02-26T11:20:10;16.60;99.90
14473;DHT22;7322;50.872;4.386;2024-02-26T11:22:38;16.60;99.90
14473;DHT22;7322;50.872;4.386;2024-02-26T11:25:10;16.60;99.90
14473;DHT22;7322;50.872;4.386;2024-02-26T11:27:43;16.70;99.90
14473;DHT22;7322;50.872;4.386;2024-02-26T11:30:12;16.60;99.90
14473;DHT22;7322;50.872;4.386;2024-02-26T11:32:46;16.60;99.90
14473;DHT22;7322;50.872;4.386;2024-02-26T11:35:15;16.60;99.90
14473;DHT22;7322;50.872;4.386;2024-02-26T11:37:56;16.60;99.90
14473;DHT22;7322;50.872;4.386;2024-02-26T11:40:24;16.60;99.90
14473;DHT22;7322;50.872;4.386;2024-02-26T11:42:54;16.60;99.90
14473;DHT22;7322;50.872;4.386;2024-02-26T11:45:49;16.60;99.90
14473;DHT22;7322;50.872;4.386;2024-02-26T11:48:21;16.60;99.90
14473;DHT22;7322;50.872;4.386;2024-02-26T11:50:49;16.60;99.90
14473;DHT22;7322;50.872;4.386;2024-02-26T11:53:26;16.60;99.90
14473;DHT22;7322;50.872;4.386;2024-02-26T11:59:03;16.60;99.90
14473;DHT22;7322;50.872;4.386;2024-02-26T12:01:44;16.60;99.90
14473;DHT22;7322;50.872;4.386;2024-02-26T12:04:18;16.60;99.90
14473;DHT22;7322;50.872;4.386;2024-02-26T12:06:55;16.60;99.90
14473;DHT22;7322;50.872;4.386;2024-02-26T12:09:32;16.60;99.90
14473;DHT22;7322;50.872;4.386;2024-02-26T12:12:00;16.60;99.90
14473;DHT22;7322;50.872;4.386;2024-02-26T12:14:33;16.50;99.90
14473;DHT22;7322;50.872;4.386;2024-02-26T12:17:19;16.60;99.90
14473;DHT22;7322;50.872;4.386;2024-02-26T12:19:47;16.60;99.90
14473;DHT22;7322;50.872;4.386;2024-02-26T12:22:16;16.60;99.90
14473;DHT22;7322;50.872;4.386;2024-02-26T12:24:43;16.50;99.90
14473;DHT22;7322;50.872;4.386;2024-02-26T12:27:10;16.50;99.90
14473;DHT22;7322;50.872;4.386;2024-02-26T12:29:39;16.50;99.90
14473;DHT22;7322;50.872;4.386;2024-02-26T12:32:06;16.60;99.90
14473;DHT22;7322;50.872;4.386;2024-02-26T12:34:35;16.60;99.90
14473;DHT22;7322;50.872;4.386;2024-02-26T12:37:02;16.60;99.90
14473;DHT22;7322;50.872;4.386;2024-02-26T12:39:32;16.60;99.90
14473;DHT22;7322;50.872;4.386;2024-02-26T12:42:09;16.60;99.90
14473;DHT22;7322;50.872;4.386;2024-02-26T12:44:40;16.50;99.90
14473;DHT22;7322;50.872;4.386;2024-02-26T12:47:09;16.60;99.90
14473;DHT22;7322;50.872;4.386;2024-02-26T12:49:43;16.60;99.90
14473;DHT22;7322;50.872;4.386;2024-02-26T12:52:18;16.50;99.90
14473;DHT22;7322;50.872;4.386;2024-02-26T12:54:47;16.50;99.90
14473;DHT22;7322;50.872;4.386;2024-02-26T12:57:37;16.50;99.90
14473;DHT22;7322;50.872;4.386;2024-02-26T13:00:08;16.60;99.90
14473;DHT22;7322;50.872;4.386;2024-02-26T13:02:37;16.50;99.90
14473;DHT22;7322;50.872;4.386;2024-02-26T13:05:07;16.50;99.90
14473;DHT22;7322;50.872;4.386;2024-02-26T13:07:41;16.50;99.90
14473;DHT22;7322;50.872;4.386;2024-02-26T13:10:09;16.50;99.90
14473;DHT22;7322;50.872;4.386;2024-02-26T13:12:43;16.50;99.90
14473;DHT22;7322;50.872;4.386;2024-02-26T13:15:19;16.50;99.90
14473;DHT22;7322;50.872;4.386;2024-02-26T13:17:53;16.50;99.90
14473;DHT22;7322;50.872;4.386;2024-02-26T13:20:32;16.40;99.90
14473;DHT22;7322;50.872;4.386;2024-02-26T13:23:01;16.50;99.90
14473;DHT22;7322;50.872;4.386;2024-02-26T13:25:28;16.50;99.90
14473;DHT22;7322;50.872;4.386;2024-02-26T13:28:07;16.50;99.90
14473;DHT22;7322;50.872;4.386;2024-02-26T13:30:36;16.50;99.90
14473;DHT22;7322;50.872;4.386;2024-02-26T13:33:12;16.50;99.90
14473;DHT22;7322;50.872;4.386;2024-02-26T13:35:39;16.40;99.90
14473;DHT22;7322;50.872;4.386;2024-02-26T13:38:06;16.40;99.90
14473;DHT22;7322;50.872;4.386;2024-02-26T13:40:33;16.40;99.90
14473;DHT22;7322;50.872;4.386;2024-02-26T13:43:01;16.40;99.90
14473;DHT22;7322;50.872;4.386;2024-02-26T13:45:29;16.40;99.90
14473;DHT22;7322;50.872;4.386;2024-02-26T13:48:02;16.40;99.90
14473;DHT22;7322;50.872;4.386;2024-02-26T13:50:29;16.40;99.90
14473;DHT22;7322;50.872;4.386;2024-02-26T13:52:58;16.40;99.90
14473;DHT22;7322;50.872;4.386;2024-02-26T13:55:25;16.40;99.90
14473;DHT22;7322;50.872;4.386;2024-02-26T13:58:12;16.40;99.90
14473;DHT22;7322;50.872;4.386;2024-02-26T14:00:40;16.50;99.90
14473;DHT22;7322;50.872;4.386;2024-02-26T14:03:09;16.40;99.90
14473;DHT22;7322;50.872;4.386;2024-02-26T14:05:36;16.40;99.90
14473;DHT22;7322;50.872;4.386;2024-02-26T14:08:10;16.40;99.90
14473;DHT22;7322;50.872;4.386;2024-02-26T14:10:38;16.40;99.90
14473;DHT22;7322;50.872;4.386;2024-02-26T14:13:05;16.40;99.90
14473;DHT22;7322;50.872;4.386;2024-02-26T14:15:33;16.40;99.90
14473;DHT22;7322;50.872;4.386;2024-02-26T14:18:01;16.40;99.90
14473;DHT22;7322;50.872;4.386;2024-02-26T14:20:30;16.30;99.90
14473;DHT22;7322;50.872;4.386;2024-02-26T14:22:57;16.40;99.90
14473;DHT22;7322;50.872;4.386;2024-02-26T14:25:24;16.40;99.90
14473;DHT22;7322;50.872;4.386;2024-02-26T14:27:57;16.40;99.90
14473;DHT22;7322;50.872;4.386;2024-02-26T14:30:25;16.40;99.90
14473;DHT22;7322;50.872;4.386;2024-02-26T14:32:52;16.40;99.90
14473;DHT22;7322;50.872;4.386;2024-02-26T14:35:21;16.40;99.90
14473;DHT22;7322;50.872;4.386;2024-02-26T14:37:51;16.40;99.90
14473;DHT22;7322;50.872;4.386;2024-02-26T14:40:19;16.40;99.90
14473;DHT22;7322;50.872;4.386;2024-02-26T14:42:46;16.30;99.90
14473;DHT22;7322;50.872;4.386;2024-02-26T14:45:13;16.40;99.90
14473;DHT22;7322;50.872;4.386;2024-02-26T14:47:49;16.40;99.90
14473;DHT22;7322;50.872;4.386;2024-02-26T14:50:37;16.40;99.90
14473;DHT22;7322;50.872;4.386;2024-02-26T14:53:12;16.30;99.90
14473;DHT22;7322;50.872;4.386;2024-02-26T14:55:40;16.30;99.90
14473;DHT22;7322;50.872;4.386;2024-02-26T14:58:07;16.40;99.90
14473;DHT22;7322;50.872;4.386;2024-02-26T15:00:42;16.30;99.90
14473;DHT22;7322;50.872;4.386;2024-02-26T15:03:11;16.30;99.90
14473;DHT22;7322;50.872;4.386;2024-02-26T15:05:38;16.30;99.90
14473;DHT22;7322;50.872;4.386;2024-02-26T15:08:06;16.30;99.90
14473;DHT22;7322;50.872;4.386;2024-02-26T15:10:37;16.30;99.90
14473;DHT22;7322;50.872;4.386;2024-02-26T15:13:04;16.30;99.90
14473;DHT22;7322;50.872;4.386;2024-02-26T15:15:32;16.30;99.90
14473;DHT22;7322;50.872;4.386;2024-02-26T15:18:01;16.30;99.90
14473;DHT22;7322;50.872;4.386;2024-02-26T15:20:28;16.30;99.90
14473;DHT22;7322;50.872;4.386;2024-02-26T15:22:56;16.30;99.90
14473;DHT22;7322;50.872;4.386;2024-02-26T15:25:24;16.30;99.90
14473;DHT22;7322;50.872;4.386;2024-02-26T15:27:54;16.30;99.90
14473;DHT22;7322;50.872;4.386;2024-02-26T15:30:27;16.30;99.90
14473;DHT22;7322;50.872;4.386;2024-02-26T15:32:55;16.30;99.90
14473;DHT22;7322;50.872;4.386;2024-02-26T15:35:25;16.30;99.90
14473;DHT22;7322;50.872;4.386;2024-02-26T15:37:52;16.30;99.90
14473;DHT22;7322;50.872;4.386;2024-02-26T15:40:25;16.30;99.90
14473;DHT22;7322;50.872;4.386;2024-02-26T15:42:53;16.30;99.90
14473;DHT22;7322;50.872;4.386;2024-02-26T15:45:21;16.30;99.90
14473;DHT22;7322;50.872;4.386;2024-02-26T15:47:47;16.50;99.90
14473;DHT22;7322;50.872;4.386;2024-02-26T15:50:14;16.70;99.90
14473;DHT22;7322;50.872;4.386;2024-02-26T15:52:47;16.80;99.90
14473;DHT22;7322;50.872;4.386;2024-02-26T15:55:14;16.90;99.90
14473;DHT22;7322;50.872;4.386;2024-02-26T15:57:41;16.90;99.90
14473;DHT22;7322;50.872;4.386;2024-02-26T16:00:13;16.90;99.90